createdAt,value
2018-09-14T00:01:04.502Z,96.81
2018-09-14T00:03:34.522Z,97.15
2018-09-14T00:06:06.867Z,97.44
2018-09-14T00:08:37.628Z,97.16
2018-09-14T00:11:07.028Z,97.47
2018-09-14T00:13:36.388Z,97.67
2018-09-14T00:16:05.746Z,97.18
2018-09-14T00:18:35.502Z,96.97
2018-09-14T00:21:06.211Z,97.15
2018-09-14T00:23:38.058Z,97.79
2018-09-14T00:28:44.630Z,97.70
2018-09-14T00:31:16.119Z,97.28
2018-09-14T00:33:45.567Z,97.12
2018-09-14T00:36:14.984Z,97.65
2018-09-14T00:38:45.049Z,96.75
2018-09-14T00:41:16.234Z,97.13
2018-09-14T00:43:45.679Z,97.04
2018-09-14T00:46:15.031Z,98.15
2018-09-14T00:48:44.883Z,98.30
2018-09-14T00:51:14.810Z,97.60
2018-09-14T00:53:44.175Z,98.02
2018-09-14T00:56:15.639Z,97.55
2018-09-14T00:58:44.994Z,97.72
2018-09-14T01:01:19.430Z,97.48
2018-09-14T01:03:48.851Z,96.86
2018-09-14T01:06:18.512Z,96.42
2018-09-14T01:08:47.932Z,96.67
2018-09-14T01:11:17.332Z,96.56
2018-09-14T01:13:46.705Z,96.32
2018-09-14T01:16:17.668Z,96.55
2018-09-14T01:18:46.970Z,96.31
2018-09-14T01:21:16.383Z,96.79
2018-09-14T01:23:49.272Z,96.63
2018-09-14T01:26:18.627Z,97.56
2018-09-14T01:28:48.898Z,96.52
2018-09-14T01:31:20.807Z,96.80
2018-09-14T01:33:51.566Z,96.91
2018-09-14T01:36:20.995Z,97.57
2018-09-14T01:38:53.310Z,96.54
2018-09-14T01:41:22.606Z,96.40
2018-09-14T01:43:51.935Z,96.91
2018-09-14T01:46:21.272Z,97.16
2018-09-14T01:48:50.946Z,96.65
2018-09-14T01:51:20.283Z,97.04
2018-09-14T01:53:49.645Z,97.46
2018-09-14T01:56:20.171Z,97.47
2018-09-14T01:58:49.496Z,96.88
2018-09-14T02:01:18.830Z,98.00
2018-09-14T02:03:48.182Z,97.14
2018-09-14T02:06:18.195Z,97.88
2018-09-14T02:08:47.511Z,98.79
2018-09-14T02:11:17.884Z,98.29
2018-09-14T02:13:51.945Z,98.60
2018-09-14T02:16:21.345Z,97.57
2018-09-14T02:18:51.467Z,97.96
2018-09-14T02:21:20.805Z,98.18
2018-09-14T02:23:50.099Z,98.87
2018-09-14T02:26:20.655Z,98.90
2018-09-14T02:28:49.971Z,98.33
2018-09-14T02:31:19.668Z,99.09
2018-09-14T02:33:48.996Z,98.68
2018-09-14T02:36:18.291Z,98.75
2018-09-14T02:38:48.179Z,98.64
2018-09-14T02:41:17.527Z,98.96
2018-09-14T02:43:47.100Z,98.18
2018-09-14T02:46:17.587Z,98.25
2018-09-14T02:48:47.879Z,98.68
2018-09-14T02:51:17.212Z,99.07
2018-09-14T02:53:47.515Z,99.54
2018-09-14T02:56:16.892Z,98.91
2018-09-14T02:58:47.473Z,99.65
2018-09-14T03:01:17.283Z,99.18
2018-09-14T03:03:47.214Z,99.14
2018-09-14T03:06:16.628Z,99.35
2018-09-14T03:08:46.472Z,98.91
2018-09-14T03:11:15.795Z,98.73
2018-09-14T03:13:45.789Z,99.93
2018-09-14T03:16:15.201Z,99.71
2018-09-14T03:18:45.438Z,100.00
2018-09-14T03:21:15.705Z,99.81
2018-09-14T03:23:45.314Z,100.00
2018-09-14T03:26:15.038Z,99.37
2018-09-14T03:28:45.225Z,99.71
2018-09-14T03:31:16.152Z,99.69
2018-09-14T03:33:45.984Z,100.00
2018-09-14T03:36:15.992Z,99.39
2018-09-14T03:38:45.347Z,99.62
2018-09-14T03:41:14.720Z,100.00
2018-09-14T03:43:45.283Z,100.00
2018-09-14T03:46:15.162Z,99.75
2018-09-14T03:48:44.477Z,99.35
2018-09-14T03:51:13.981Z,100.00
2018-09-14T03:53:43.954Z,100.00
2018-09-14T03:56:13.305Z,99.38
2018-09-14T03:58:42.674Z,99.96
2018-09-14T04:01:13.993Z,99.30
2018-09-14T04:03:43.438Z,99.43
2018-09-14T04:06:12.746Z,100.00
2018-09-14T04:08:42.862Z,99.28
2018-09-14T04:11:13.781Z,98.89
2018-09-14T04:13:43.267Z,99.49
2018-09-14T04:16:12.594Z,99.62
2018-09-14T04:18:41.941Z,100.00
2018-09-14T04:21:11.246Z,99.92
2018-09-14T04:23:40.647Z,100.00
2018-09-14T04:26:10.414Z,100.00
2018-09-14T04:28:39.812Z,100.00
2018-09-14T04:31:09.114Z,100.00
2018-09-14T04:33:40.491Z,100.00
2018-09-14T04:36:10.178Z,100.00
2018-09-14T04:38:40.672Z,100.00
2018-09-14T04:41:10.047Z,100.00
2018-09-14T04:43:40.313Z,99.98
2018-09-14T04:46:10.483Z,100.00
2018-09-14T04:48:41.427Z,99.64
2018-09-14T04:51:11.208Z,100.00
2018-09-14T04:53:41.821Z,100.00
2018-09-14T04:56:12.884Z,100.00
2018-09-14T04:58:42.246Z,100.00
2018-09-14T05:01:12.162Z,100.00
2018-09-14T05:03:41.517Z,100.00
2018-09-14T05:06:10.902Z,99.97
2018-09-14T05:08:40.287Z,100.00
2018-09-14T05:11:09.637Z,100.00
2018-09-14T05:13:39.138Z,100.00
2018-09-14T05:16:08.923Z,100.00
2018-09-14T05:18:38.999Z,100.00
2018-09-14T05:21:08.857Z,100.00
2018-09-14T05:23:38.418Z,100.00
2018-09-14T05:26:11.466Z,100.00
2018-09-14T05:28:41.604Z,100.00
2018-09-14T05:31:10.962Z,100.00
2018-09-14T05:33:44.617Z,100.00
2018-09-14T05:36:15.548Z,100.00
2018-09-14T05:38:46.546Z,100.00
2018-09-14T05:41:17.726Z,100.00
2018-09-14T05:43:47.122Z,100.00
2018-09-14T05:46:17.033Z,100.00
2018-09-14T05:48:47.138Z,100.00
2018-09-14T05:51:16.546Z,100.00
2018-09-14T05:53:53.814Z,100.00
2018-09-14T05:56:23.887Z,100.00
2018-09-14T05:58:53.261Z,100.00
2018-09-14T06:01:24.107Z,100.00
2018-09-14T06:03:53.797Z,100.00
2018-09-14T06:06:23.170Z,100.00
2018-09-14T06:08:55.372Z,100.00
2018-09-14T06:11:25.260Z,100.00
2018-09-14T06:13:56.460Z,100.00
2018-09-14T06:16:25.855Z,100.00
2018-09-14T06:18:56.961Z,100.00
2018-09-14T06:21:27.704Z,100.00
2018-09-14T06:23:57.931Z,100.00
2018-09-14T06:26:27.322Z,100.00
2018-09-14T06:28:57.459Z,100.00
2018-09-14T06:31:26.824Z,100.00
2018-09-14T06:33:56.118Z,100.00
2018-09-14T06:36:31.079Z,100.00
2018-09-14T06:39:00.403Z,100.00
2018-09-14T06:41:29.741Z,100.00
2018-09-14T06:43:59.109Z,100.00
2018-09-14T06:46:28.480Z,100.00
2018-09-14T06:48:58.283Z,100.00
2018-09-14T06:51:29.387Z,100.00
2018-09-14T06:53:58.709Z,100.00
2018-09-14T06:56:28.031Z,100.00
2018-09-14T06:58:58.468Z,100.00
2018-09-14T07:01:28.547Z,100.00
2018-09-14T07:03:58.695Z,100.00
2018-09-14T07:06:28.828Z,100.00
2018-09-14T07:08:59.819Z,100.00
2018-09-14T07:11:32.318Z,100.00
2018-09-14T07:14:33.269Z,100.00
2018-09-14T07:17:04.541Z,100.00
2018-09-14T07:19:35.101Z,100.00
2018-09-14T07:22:04.457Z,100.00
2018-09-14T07:24:34.997Z,100.00
2018-09-14T07:27:05.235Z,100.00
2018-09-14T07:29:36.483Z,100.00
2018-09-14T07:32:06.231Z,100.00
2018-09-14T07:34:37.222Z,100.00
2018-09-14T07:37:07.248Z,100.00
2018-09-14T07:39:37.286Z,100.00
2018-09-14T07:42:08.357Z,100.00
2018-09-14T07:44:38.670Z,100.00
2018-09-14T07:47:10.011Z,100.00
2018-09-14T07:49:43.354Z,100.00
2018-09-14T07:52:14.408Z,100.00
2018-09-14T07:54:44.816Z,100.00
2018-09-14T07:57:16.213Z,100.00
2018-09-14T07:59:47.720Z,100.00
2018-09-14T08:02:19.603Z,100.00
2018-09-14T08:04:50.430Z,100.00
2018-09-14T08:07:21.674Z,99.11
2018-09-14T08:09:52.991Z,99.93
2018-09-14T08:12:22.838Z,99.54
2018-09-14T08:14:52.138Z,99.23
2018-09-14T08:17:22.435Z,99.03
2018-09-14T08:19:53.018Z,99.52
2018-09-14T08:22:22.628Z,99.32
2018-09-14T08:24:53.446Z,99.56
2018-09-14T08:27:24.386Z,99.20
2018-09-14T08:29:54.346Z,99.50
2018-09-14T08:32:24.493Z,99.77
2018-09-14T08:34:56.605Z,100.00
2018-09-14T08:37:26.261Z,100.00
2018-09-14T08:39:58.163Z,100.00
2018-09-14T08:42:30.934Z,99.24
2018-09-14T08:45:01.734Z,99.36
2018-09-14T08:47:33.186Z,99.60
2018-09-14T08:50:03.110Z,99.38
2018-09-14T08:52:33.378Z,99.62
2018-09-14T08:55:04.910Z,99.68
2018-09-14T08:57:36.051Z,99.25
2018-09-14T09:00:05.422Z,99.82
2018-09-14T09:02:34.874Z,99.40
2018-09-14T09:05:04.586Z,98.37
2018-09-14T09:07:34.348Z,98.62
2018-09-14T09:10:03.644Z,97.97
2018-09-14T09:12:35.539Z,99.28
2018-09-14T09:15:05.944Z,100.00
2018-09-14T09:17:35.790Z,99.43
2018-09-14T09:20:05.530Z,100.00
2018-09-14T09:22:35.572Z,100.00
2018-09-14T09:25:05.206Z,99.69
2018-09-14T09:27:49.048Z,100.00
2018-09-14T09:32:59.048Z,99.52
2018-09-14T09:35:29.355Z,98.90
2018-09-14T09:38:01.075Z,98.83
2018-09-14T09:40:30.492Z,99.23
2018-09-14T09:43:00.639Z,98.53
2018-09-14T09:45:32.349Z,98.37
2018-09-14T09:48:02.179Z,98.44
2018-09-14T09:50:31.494Z,97.10
2018-09-14T09:53:00.802Z,95.23
2018-09-14T09:55:30.115Z,96.23
2018-09-14T09:57:59.485Z,97.10
2018-09-14T10:00:34.368Z,96.87
2018-09-14T10:03:10.680Z,96.14
2018-09-14T10:05:46.496Z,97.46
2018-09-14T10:08:15.774Z,95.24
2018-09-14T10:10:45.214Z,94.09
2018-09-14T10:13:18.564Z,94.02
2018-09-14T10:15:52.158Z,92.58
2018-09-14T10:18:21.466Z,93.49
2018-09-14T10:20:51.815Z,89.48
2018-09-14T10:23:22.428Z,90.07
2018-09-14T10:25:51.739Z,90.35
2018-09-14T10:28:22.919Z,91.64
2018-09-14T10:30:53.421Z,91.39
2018-09-14T10:33:24.771Z,90.74
2018-09-14T10:35:55.834Z,90.72
2018-09-14T10:38:27.513Z,88.99
2018-09-14T10:41:02.448Z,87.14
2018-09-14T10:43:35.991Z,84.81
2018-09-14T10:46:07.580Z,85.68
2018-09-14T10:48:37.620Z,84.90
2018-09-14T10:51:08.397Z,83.68
2018-09-14T10:53:40.085Z,84.17
2018-09-14T10:56:09.555Z,83.32
2018-09-14T10:58:43.803Z,84.25
2018-09-14T11:01:17.821Z,82.33
2018-09-14T11:03:47.205Z,82.40
2018-09-14T11:06:17.418Z,85.59
2018-09-14T11:08:48.352Z,84.08
2018-09-14T11:11:21.554Z,82.68
2018-09-14T11:13:51.927Z,82.92
2018-09-14T11:16:22.303Z,81.16
2018-09-14T11:18:56.410Z,81.68
2018-09-14T11:21:26.402Z,81.47
2018-09-14T11:24:02.569Z,82.36
2018-09-14T11:26:32.491Z,80.46
2018-09-14T11:29:01.857Z,80.10
2018-09-14T11:31:32.228Z,81.08
2018-09-14T11:34:02.259Z,80.79
2018-09-14T11:36:31.587Z,79.72
2018-09-14T11:39:02.287Z,81.06
2018-09-14T11:41:31.669Z,80.20
2018-09-14T11:44:03.916Z,78.59
2018-09-14T11:46:37.035Z,78.75
2018-09-14T11:49:06.421Z,77.29
2018-09-14T11:51:36.023Z,78.00
2018-09-14T11:54:09.046Z,79.04
2018-09-14T11:56:39.053Z,77.11
2018-09-14T11:59:08.411Z,75.06
2018-09-14T12:01:37.737Z,75.85
2018-09-14T12:04:11.295Z,75.89
2018-09-14T12:06:40.688Z,76.25
2018-09-14T12:09:40.845Z,77.07
2018-09-14T12:12:12.109Z,75.42
2018-09-14T12:14:43.199Z,74.89
2018-09-14T12:17:14.165Z,74.36
2018-09-14T12:19:47.275Z,74.09
2018-09-14T12:22:18.023Z,74.76
2018-09-14T12:24:48.510Z,75.13
2018-09-14T12:27:29.685Z,72.95
2018-09-14T12:30:00.118Z,74.21
2018-09-14T12:32:29.861Z,73.58
2018-09-14T12:34:59.335Z,74.92
2018-09-14T12:37:28.993Z,72.45
2018-09-14T12:40:08.491Z,72.42
2018-09-14T12:42:39.907Z,71.62
2018-09-14T12:45:10.704Z,71.05
2018-09-14T12:47:40.907Z,70.45
2018-09-14T12:50:11.507Z,72.07
2018-09-14T12:52:41.584Z,70.40
2018-09-14T12:55:11.526Z,70.43
2018-09-14T12:57:41.189Z,69.81
2018-09-14T13:00:10.531Z,69.03
2018-09-14T13:02:40.342Z,69.66
2018-09-14T13:05:10.942Z,70.50
2018-09-14T13:07:40.491Z,68.32
2018-09-14T13:10:12.630Z,68.19
2018-09-14T13:12:42.617Z,66.53
2018-09-14T13:15:11.946Z,67.37
2018-09-14T13:17:41.255Z,67.63
2018-09-14T13:20:13.451Z,67.90
2018-09-14T13:22:42.732Z,68.73
2018-09-14T13:25:12.096Z,69.06
2018-09-14T13:27:43.858Z,69.80
2018-09-14T13:30:14.895Z,69.99
2018-09-14T13:32:46.558Z,70.66
2018-09-14T13:35:17.010Z,71.38
2018-09-14T13:37:46.335Z,71.51
2018-09-14T13:40:15.875Z,70.05
2018-09-14T13:42:46.599Z,69.74
2018-09-14T13:45:18.410Z,69.76
2018-09-14T13:47:48.902Z,68.16
2018-09-14T13:50:19.926Z,66.49
2018-09-14T13:52:49.469Z,66.60
2018-09-14T13:55:21.391Z,67.88
2018-09-14T13:57:55.623Z,65.89
2018-09-14T14:00:25.683Z,64.97
2018-09-14T14:02:55.228Z,64.79
2018-09-14T14:05:25.695Z,64.01
2018-09-14T14:07:59.435Z,64.99
2018-09-14T14:10:28.834Z,64.28
2018-09-14T14:12:59.066Z,65.07
2018-09-14T14:15:31.868Z,64.59
2018-09-14T14:18:02.263Z,65.23
2018-09-14T14:20:34.635Z,64.25
2018-09-14T14:23:04.578Z,65.59
2018-09-14T14:25:35.155Z,64.36
2018-09-14T14:28:05.480Z,63.87
2018-09-14T14:30:38.196Z,65.43
2018-09-14T14:33:08.440Z,63.12
2018-09-14T14:35:39.819Z,63.85
2018-09-14T14:38:09.484Z,62.62
2018-09-14T14:40:39.443Z,64.01
2018-09-14T14:43:08.778Z,65.46
2018-09-14T14:45:38.368Z,65.27
2018-09-14T14:48:07.688Z,63.97
2018-09-14T14:50:39.884Z,63.34
2018-09-14T14:53:09.299Z,64.05
2018-09-14T14:55:39.471Z,63.23
2018-09-14T14:58:09.723Z,62.90
2018-09-14T15:00:42.168Z,63.96
2018-09-14T15:03:11.446Z,65.91
2018-09-14T15:05:42.156Z,65.39
2018-09-14T15:08:13.266Z,64.87
2018-09-14T15:10:43.291Z,65.37
2018-09-14T15:13:12.655Z,65.58
2018-09-14T15:18:17.711Z,68.13
2018-09-14T15:20:47.548Z,66.72
2018-09-14T15:23:18.596Z,66.39
2018-09-14T15:25:49.635Z,65.25
2018-09-14T15:28:21.334Z,65.94
2018-09-14T15:30:50.672Z,66.50
2018-09-14T15:33:23.877Z,65.81
2018-09-14T15:35:53.202Z,65.79
2018-09-14T15:38:23.694Z,65.77
2018-09-14T15:40:53.413Z,65.65
2018-09-14T15:43:25.544Z,64.85
2018-09-14T15:45:55.503Z,64.64
2018-09-14T15:48:27.351Z,65.15
2018-09-14T15:50:56.691Z,65.17
2018-09-14T15:53:29.695Z,65.25
2018-09-14T15:55:59.035Z,65.35
2018-09-14T15:58:28.461Z,66.30
2018-09-14T16:01:00.971Z,66.76
2018-09-14T16:03:30.286Z,67.24
2018-09-14T16:06:00.907Z,65.77
2018-09-14T16:08:30.839Z,66.93
2018-09-14T16:11:00.183Z,67.32
2018-09-14T16:13:31.457Z,67.15
2018-09-14T16:16:00.767Z,66.75
2018-09-14T16:18:31.039Z,67.21
2018-09-14T16:21:06.275Z,67.55
2018-09-14T16:23:36.606Z,68.05
2018-09-14T16:26:06.322Z,68.67
2018-09-14T16:28:35.616Z,68.56
2018-09-14T16:31:06.571Z,69.46
2018-09-14T16:33:37.447Z,69.85
2018-09-14T16:36:07.098Z,70.93
2018-09-14T16:38:36.400Z,71.64
2018-09-14T16:41:05.740Z,71.67
2018-09-14T16:43:41.532Z,73.37
2018-09-14T16:46:11.826Z,73.19
2018-09-14T16:48:44.175Z,73.39
2018-09-14T16:51:16.474Z,73.63
2018-09-14T16:53:47.723Z,74.84
2018-09-14T16:56:17.777Z,74.47
2018-09-14T16:58:49.054Z,75.33
2018-09-14T17:01:21.706Z,75.30
2018-09-14T17:03:52.678Z,75.48
2018-09-14T17:06:24.188Z,76.34
2018-09-14T17:08:54.207Z,77.15
2018-09-14T17:12:26.396Z,76.38
2018-09-14T17:14:57.370Z,77.07
2018-09-14T17:17:27.059Z,77.93
2018-09-14T17:19:57.362Z,77.32
2018-09-14T17:22:27.328Z,77.70
2018-09-14T17:24:59.616Z,78.37
2018-09-14T17:27:29.351Z,78.94
2018-09-14T17:30:00.475Z,79.28
2018-09-14T17:32:30.428Z,79.59
2018-09-14T17:35:01.336Z,81.03
2018-09-14T17:37:32.161Z,80.70
2018-09-14T17:40:03.359Z,81.19
2018-09-14T17:42:34.358Z,81.09
2018-09-14T17:45:07.229Z,81.26
2018-09-14T17:48:01.946Z,81.31
2018-09-14T17:50:32.358Z,81.56
2018-09-14T17:53:08.167Z,82.63
2018-09-14T17:55:38.449Z,82.78
2018-09-14T17:58:10.275Z,82.80
2018-09-14T18:00:39.962Z,82.32
2018-09-14T18:03:10.798Z,83.76
2018-09-14T18:05:40.399Z,84.04
2018-09-14T18:08:13.823Z,82.70
2018-09-14T18:10:44.392Z,83.97
2018-09-14T18:13:19.407Z,84.12
2018-09-14T18:15:49.412Z,85.69
2018-09-14T18:18:22.628Z,84.29
2018-09-14T18:20:58.287Z,84.79
2018-09-14T18:23:28.626Z,85.00
2018-09-14T18:26:04.691Z,84.97
2018-09-14T18:28:34.109Z,84.83
2018-09-14T18:31:05.356Z,85.28
2018-09-14T18:33:43.051Z,84.33
2018-09-14T18:36:13.993Z,85.29
2018-09-14T18:38:48.082Z,86.05
2018-09-14T18:41:18.851Z,86.18
2018-09-14T18:43:48.479Z,85.68
2018-09-14T18:46:19.416Z,86.25
2018-09-14T18:48:51.529Z,86.08
2018-09-14T18:51:24.082Z,86.20
2018-09-14T18:54:00.520Z,86.35
2018-09-14T18:56:31.246Z,87.11
2018-09-14T18:59:05.622Z,87.08
2018-09-14T19:01:36.387Z,86.65
2018-09-14T19:04:12.372Z,87.69
2018-09-14T19:06:42.054Z,87.78
2018-09-14T19:09:19.799Z,87.26
2018-09-14T19:11:52.338Z,87.09
2018-09-14T19:14:21.751Z,87.46
2018-09-14T19:16:53.620Z,88.22
2018-09-14T19:19:30.692Z,87.83
2018-09-14T19:22:02.381Z,87.47
2018-09-14T19:24:36.757Z,87.59
2018-09-14T19:27:08.629Z,89.08
2018-09-14T19:29:39.923Z,89.09
2018-09-14T19:32:16.375Z,88.89
2018-09-14T19:34:50.354Z,89.18
2018-09-14T19:37:21.483Z,89.24
2018-09-14T19:39:54.822Z,90.26
2018-09-14T19:42:26.218Z,89.80
2018-09-14T19:44:56.767Z,90.18
2018-09-14T19:47:27.322Z,89.68
2018-09-14T19:49:56.932Z,89.22
2018-09-14T19:52:27.427Z,88.85
2018-09-14T19:54:58.402Z,89.55
2018-09-14T19:57:29.014Z,87.52
2018-09-14T20:00:00.638Z,87.37
2018-09-14T20:02:33.391Z,86.95
2018-09-14T20:05:05.408Z,87.01
2018-09-14T20:07:37.564Z,87.33
2018-09-14T20:10:08.194Z,86.19
2018-09-14T20:12:38.966Z,85.63
2018-09-14T20:15:10.610Z,85.44
2018-09-14T20:17:42.740Z,84.98
2018-09-14T20:20:16.856Z,85.39
2018-09-14T20:22:46.131Z,84.61
2018-09-14T20:25:15.926Z,85.14
2018-09-14T20:27:46.191Z,84.11
2018-09-14T20:30:18.012Z,84.16
2018-09-14T20:32:49.118Z,83.84
2018-09-14T20:35:22.613Z,83.29
2018-09-14T20:37:59.684Z,83.50
2018-09-14T20:40:30.995Z,83.28
2018-09-14T20:43:03.596Z,83.54
2018-09-14T20:45:33.232Z,82.77
2018-09-14T20:48:05.219Z,83.51
2018-09-14T20:50:36.335Z,82.85
2018-09-14T20:53:06.439Z,82.15
2018-09-14T20:55:37.020Z,82.99
2018-09-14T20:58:06.564Z,81.83
2018-09-14T21:00:36.492Z,83.23
2018-09-14T21:03:12.330Z,81.91
2018-09-14T21:05:42.853Z,83.09
2018-09-14T21:15:27.403Z,83.19
2018-09-14T21:18:37.268Z,83.24
2018-09-14T21:21:10.314Z,82.40
2018-09-14T21:23:40.061Z,82.20
2018-09-14T21:26:10.851Z,82.48
2018-09-14T21:28:40.655Z,83.11
2018-09-14T21:31:10.741Z,82.18
2018-09-14T21:33:40.755Z,82.37
2018-09-14T21:36:10.257Z,82.62
2018-09-14T21:38:45.492Z,82.94
2018-09-14T21:41:18.331Z,82.06
2018-09-14T21:43:55.292Z,81.58
2018-09-14T21:46:26.543Z,83.06
2018-09-14T21:48:59.192Z,82.75
2018-09-14T21:51:31.533Z,83.80
2018-09-14T21:54:01.476Z,83.74
2018-09-14T21:56:32.674Z,84.91
2018-09-14T21:59:03.282Z,84.75
2018-09-14T22:01:33.543Z,85.18
2018-09-14T22:04:05.358Z,84.07
2018-09-14T22:06:37.487Z,83.86
2018-09-14T22:09:11.888Z,84.33
2018-09-14T22:11:42.589Z,83.53
2018-09-14T22:14:28.111Z,82.23
2018-09-14T22:16:59.813Z,82.53
2018-09-14T22:19:30.408Z,81.66
2018-09-14T22:22:04.382Z,81.60
2018-09-14T22:24:33.874Z,81.46
2018-09-14T22:27:03.285Z,81.63
2018-09-14T22:29:33.875Z,81.31
2018-09-14T22:32:07.308Z,81.92
2018-09-14T22:34:36.663Z,81.35
2018-09-14T22:37:07.245Z,81.57
2018-09-14T22:39:37.738Z,82.35
2018-09-14T22:42:07.040Z,82.84
2018-09-14T22:44:36.384Z,81.77
2018-09-14T22:47:06.709Z,82.94
2018-09-14T22:49:36.004Z,82.55
2018-09-14T22:52:07.408Z,82.77
2018-09-14T22:54:36.787Z,82.66
2018-09-14T22:57:06.093Z,82.79
2018-09-14T22:59:35.403Z,82.65
2018-09-14T23:02:04.742Z,83.04
2018-09-14T23:04:34.261Z,83.50
2018-09-14T23:07:04.720Z,84.00
2018-09-14T23:09:35.718Z,83.88
2018-09-14T23:12:05.937Z,84.22
2018-09-14T23:14:35.573Z,84.27
2018-09-14T23:17:06.107Z,85.48
2018-09-14T23:19:37.010Z,84.98
2018-09-14T23:22:29.865Z,86.50
2018-09-14T23:25:11.271Z,85.62
2018-09-14T23:27:55.702Z,86.08
2018-09-14T23:30:42.374Z,85.94
2018-09-14T23:33:22.895Z,85.96
2018-09-14T23:35:52.216Z,86.36
2018-09-14T23:38:23.262Z,86.55
2018-09-14T23:40:53.562Z,87.54
2018-09-14T23:43:23.306Z,87.38
2018-09-14T23:45:53.915Z,87.20
2018-09-14T23:48:24.058Z,87.50
2018-09-14T23:50:53.872Z,87.37
2018-09-14T23:53:23.594Z,88.00
2018-09-14T23:55:53.738Z,87.44
2018-09-14T23:58:25.366Z,88.25
